createdAt,value
2022-10-10T00:00:16.045Z,4.23
2022-10-10T00:02:43.977Z,3.47
2022-10-10T00:05:11.888Z,3.30
2022-10-10T00:07:41.281Z,3.23
2022-10-10T00:10:09.526Z,3.30
2022-10-10T00:12:37.416Z,3.53
2022-10-10T00:15:06.268Z,3.60
2022-10-10T00:17:34.199Z,3.30
2022-10-10T00:20:02.147Z,3.33
2022-10-10T00:22:30.067Z,3.17
2022-10-10T00:24:59.446Z,3.60
2022-10-10T00:27:27.441Z,3.87
2022-10-10T00:29:55.419Z,3.30
2022-10-10T00:32:23.371Z,3.33
2022-10-10T00:34:51.269Z,3.07
2022-10-10T00:37:19.170Z,3.40
2022-10-10T00:39:47.122Z,3.63
2022-10-10T00:42:18.020Z,3.20
2022-10-10T00:44:46.785Z,3.03
2022-10-10T00:47:14.806Z,3.60
2022-10-10T00:49:44.693Z,3.20
2022-10-10T00:52:13.547Z,3.27
2022-10-10T00:54:41.453Z,3.67
2022-10-10T00:57:10.192Z,3.40
2022-10-10T00:59:40.733Z,3.53
2022-10-10T01:02:08.650Z,3.60
2022-10-10T01:04:40.572Z,3.70
2022-10-10T01:07:12.650Z,3.73
2022-10-10T01:09:42.354Z,3.43
2022-10-10T01:12:16.996Z,3.13
2022-10-10T01:14:48.850Z,3.63
2022-10-10T01:17:20.450Z,3.07
2022-10-10T01:20:08.489Z,3.47
2022-10-10T01:22:40.837Z,3.40
2022-10-10T01:25:15.749Z,3.50
2022-10-10T01:27:47.503Z,3.80
2022-10-10T01:30:17.941Z,3.80
2022-10-10T01:32:52.476Z,3.30
2022-10-10T01:35:29.698Z,3.43
2022-10-10T01:38:04.311Z,3.47
2022-10-10T01:40:34.763Z,3.50
2022-10-10T01:43:03.835Z,2.90
2022-10-10T01:45:33.154Z,3.60
2022-10-10T01:48:03.046Z,3.43
2022-10-10T01:50:31.722Z,3.50
2022-10-10T01:53:05.171Z,3.47
2022-10-10T01:55:44.387Z,3.93
2022-10-10T01:58:18.900Z,3.80
2022-10-10T02:00:51.124Z,3.73
2022-10-10T02:03:21.030Z,4.00
2022-10-10T02:05:50.675Z,4.13
2022-10-10T02:08:21.388Z,3.93
2022-10-10T02:10:50.791Z,4.67
2022-10-10T02:13:19.660Z,3.80
2022-10-10T02:15:50.212Z,4.30
2022-10-10T02:18:19.308Z,4.20
2022-10-10T02:20:47.335Z,4.20
2022-10-10T02:23:16.205Z,4.40
2022-10-10T02:25:45.034Z,4.17
2022-10-10T02:28:15.057Z,4.60
2022-10-10T02:30:46.083Z,4.60
2022-10-10T02:33:17.398Z,5.17
2022-10-10T02:35:47.340Z,4.77
2022-10-10T02:38:16.562Z,4.40
2022-10-10T02:40:45.148Z,4.53
2022-10-10T02:43:13.710Z,4.43
2022-10-10T02:45:43.695Z,4.87
2022-10-10T02:48:11.904Z,4.43
2022-10-10T02:50:41.322Z,5.20
2022-10-10T02:53:09.233Z,5.17
2022-10-10T02:55:37.135Z,4.87
2022-10-10T02:58:05.067Z,5.27
2022-10-10T03:00:32.969Z,5.37
2022-10-10T03:03:00.907Z,4.97
2022-10-10T03:05:28.868Z,5.00
2022-10-10T03:07:58.309Z,4.63
2022-10-10T03:10:26.291Z,5.40
2022-10-10T03:12:54.284Z,4.97
2022-10-10T03:15:22.338Z,5.03
2022-10-10T03:17:50.245Z,4.90
2022-10-10T03:20:18.322Z,5.10
2022-10-10T03:22:46.283Z,5.20
2022-10-10T03:25:15.755Z,5.73
2022-10-10T03:27:43.801Z,4.97
2022-10-10T03:30:12.624Z,5.30
2022-10-10T03:32:40.520Z,4.93
2022-10-10T03:35:08.794Z,4.87
2022-10-10T03:37:36.892Z,5.50
2022-10-10T03:40:05.146Z,5.07
2022-10-10T03:42:34.547Z,4.93
2022-10-10T03:45:02.541Z,5.53
2022-10-10T03:47:30.550Z,5.37
2022-10-10T03:49:58.526Z,5.77
2022-10-10T03:52:26.485Z,6.23
2022-10-10T03:54:54.422Z,5.63
2022-10-10T03:57:22.393Z,5.77
2022-10-10T03:59:51.908Z,6.53
2022-10-10T04:02:19.864Z,5.70
2022-10-10T04:04:47.777Z,5.67
2022-10-10T04:07:15.710Z,5.93
2022-10-10T04:09:43.671Z,5.80
2022-10-10T04:12:11.595Z,6.70
2022-10-10T04:14:39.506Z,6.00
2022-10-10T04:17:08.889Z,6.17
2022-10-10T04:19:36.796Z,6.57
2022-10-10T04:22:08.925Z,6.53
2022-10-10T04:24:38.227Z,6.87
2022-10-10T04:27:06.212Z,6.20
2022-10-10T04:29:34.152Z,5.57
2022-10-10T04:32:02.044Z,5.63
2022-10-10T04:34:31.592Z,5.30
2022-10-10T04:36:59.555Z,5.40
2022-10-10T04:39:27.658Z,5.40
2022-10-10T04:41:55.607Z,5.30
2022-10-10T04:44:23.543Z,5.33
2022-10-10T04:46:51.475Z,5.87
2022-10-10T04:49:19.353Z,6.30
2022-10-10T04:51:48.718Z,5.53
2022-10-10T04:54:16.615Z,4.77
2022-10-10T04:56:44.549Z,5.53
2022-10-10T04:59:12.490Z,5.53
2022-10-10T05:01:40.439Z,5.37
2022-10-10T05:04:08.477Z,5.00
2022-10-10T05:06:36.481Z,5.00
2022-10-10T05:09:05.923Z,5.57
2022-10-10T05:11:33.828Z,5.77
2022-10-10T05:14:01.750Z,7.27
2022-10-10T05:16:29.789Z,5.93
2022-10-10T05:18:57.958Z,5.63
2022-10-10T05:21:25.896Z,5.93
2022-10-10T05:23:53.983Z,5.30
2022-10-10T05:26:23.417Z,5.60
2022-10-10T05:28:51.370Z,5.20
2022-10-10T05:31:19.307Z,5.07
2022-10-10T05:33:47.263Z,5.53
2022-10-10T05:36:15.413Z,5.10
2022-10-10T05:38:43.319Z,5.37
2022-10-10T05:41:11.324Z,5.77
2022-10-10T05:43:40.654Z,5.57
2022-10-10T05:46:08.604Z,5.20
2022-10-10T05:48:36.537Z,6.27
2022-10-10T05:51:04.527Z,4.70
2022-10-10T05:53:32.430Z,5.50
2022-10-10T05:56:02.069Z,5.23
2022-10-10T05:58:30.863Z,5.97
2022-10-10T06:01:03.568Z,6.27
2022-10-10T06:03:31.485Z,5.90
2022-10-10T06:05:59.449Z,5.63
2022-10-10T06:08:27.487Z,5.10
2022-10-10T06:10:55.399Z,4.20
2022-10-10T06:13:24.529Z,5.40
2022-10-10T06:15:53.164Z,5.00
2022-10-10T06:18:22.659Z,4.83
2022-10-10T06:20:50.598Z,5.17
2022-10-10T06:23:18.515Z,4.43
2022-10-10T06:25:46.432Z,5.27
2022-10-10T06:28:14.497Z,5.17
2022-10-10T06:30:42.745Z,5.03
2022-10-10T06:33:11.149Z,5.87
2022-10-10T06:35:44.121Z,5.33
2022-10-10T06:38:12.437Z,5.43
2022-10-10T06:40:40.611Z,5.07
2022-10-10T06:43:12.114Z,5.70
2022-10-10T06:45:40.875Z,6.80
2022-10-10T06:48:09.094Z,6.00
2022-10-10T06:50:37.591Z,6.60
2022-10-10T06:53:07.105Z,6.43
2022-10-10T06:55:35.067Z,6.23
2022-10-10T06:58:03.049Z,6.57
2022-10-10T07:00:31.050Z,6.30
2022-10-10T07:02:59.074Z,5.77
2022-10-10T07:05:27.011Z,7.90
2022-10-10T07:07:54.944Z,6.63
2022-10-10T07:10:24.603Z,6.57
2022-10-10T07:12:52.764Z,6.70
2022-10-10T07:15:20.922Z,5.97
2022-10-10T07:17:53.519Z,7.20
2022-10-10T07:20:22.364Z,6.30
2022-10-10T07:22:50.484Z,6.90
2022-10-10T07:25:18.694Z,6.47
2022-10-10T07:27:48.122Z,6.40
2022-10-10T07:30:16.430Z,7.30
2022-10-10T07:32:44.414Z,7.00
2022-10-10T07:35:12.582Z,6.83
2022-10-10T07:37:40.657Z,8.30
2022-10-10T07:40:09.620Z,7.00
2022-10-10T07:42:37.604Z,7.23
2022-10-10T07:45:07.795Z,7.47
2022-10-10T07:47:35.818Z,6.73
2022-10-10T07:50:03.771Z,7.37
2022-10-10T07:52:31.762Z,7.30
2022-10-10T07:54:59.690Z,6.80
2022-10-10T07:57:27.801Z,6.80
2022-10-10T07:59:55.740Z,7.13
2022-10-10T08:02:25.102Z,6.80
2022-10-10T08:04:53.072Z,7.03
2022-10-10T08:07:20.979Z,7.33
2022-10-10T08:09:48.931Z,6.90
2022-10-10T08:12:16.949Z,7.07
2022-10-10T08:14:45.074Z,6.73
2022-10-10T08:17:13.008Z,5.97
2022-10-10T08:19:42.410Z,6.37
2022-10-10T08:22:10.338Z,6.43
2022-10-10T08:24:38.248Z,6.67
2022-10-10T08:27:06.303Z,6.43
2022-10-10T08:29:34.408Z,6.60
2022-10-10T08:32:02.335Z,6.10
2022-10-10T08:34:30.284Z,6.00
2022-10-10T08:36:59.672Z,6.30
2022-10-10T08:39:27.619Z,5.30
2022-10-10T08:41:57.096Z,5.97
2022-10-10T08:44:29.759Z,5.90
2022-10-10T08:46:58.348Z,6.23
2022-10-10T08:49:29.000Z,7.43
2022-10-10T08:52:02.673Z,6.07
2022-10-10T08:54:31.050Z,6.07
2022-10-10T08:57:01.247Z,5.90
2022-10-10T08:59:30.658Z,5.63
2022-10-10T09:02:18.883Z,5.37
2022-10-10T09:04:49.453Z,5.67
2022-10-10T09:07:25.063Z,6.83
2022-10-10T09:09:56.798Z,6.17
2022-10-10T09:12:29.737Z,6.67
2022-10-10T09:15:02.878Z,5.67
2022-10-10T09:17:35.905Z,5.70
2022-10-10T09:20:08.211Z,5.43
2022-10-10T09:22:42.264Z,5.17
2022-10-10T09:25:17.536Z,4.73
2022-10-10T09:27:48.626Z,4.90
2022-10-10T09:30:19.014Z,4.90
2022-10-10T09:32:49.885Z,4.90
2022-10-10T09:35:19.747Z,4.80
2022-10-10T09:37:50.898Z,5.00
2022-10-10T09:40:21.826Z,5.13
2022-10-10T09:42:49.772Z,5.10
2022-10-10T09:45:19.586Z,6.17
2022-10-10T09:47:48.475Z,8.27
2022-10-10T09:50:16.923Z,8.37
2022-10-10T09:52:45.272Z,7.70
2022-10-10T09:55:24.663Z,5.83
2022-10-10T09:57:53.516Z,4.00
2022-10-10T10:00:29.442Z,4.00
2022-10-10T10:03:08.074Z,3.10
2022-10-10T10:05:36.400Z,3.20
2022-10-10T10:08:04.346Z,3.47
2022-10-10T10:10:35.873Z,3.37
2022-10-10T10:13:03.845Z,3.13
2022-10-10T10:15:32.929Z,2.90
2022-10-10T10:18:14.128Z,3.03
2022-10-10T10:20:42.800Z,2.83
2022-10-10T10:23:23.939Z,2.53
2022-10-10T10:26:00.435Z,2.70
2022-10-10T10:28:29.006Z,2.50
2022-10-10T10:30:57.947Z,3.00
2022-10-10T10:33:33.095Z,2.60
2022-10-10T10:36:04.759Z,2.40
2022-10-10T10:38:37.911Z,2.63
2022-10-10T10:41:12.020Z,2.40
2022-10-10T10:44:13.097Z,3.30
2022-10-10T10:46:47.379Z,3.10
2022-10-10T10:49:18.691Z,2.57
2022-10-10T10:51:54.236Z,2.43
2022-10-10T10:54:28.728Z,2.27
2022-10-10T10:57:07.039Z,2.30
2022-10-10T11:00:22.301Z,2.60
2022-10-10T11:02:57.173Z,1.80
2022-10-10T11:05:40.949Z,2.37
2022-10-10T11:08:27.541Z,2.10
2022-10-10T11:11:00.811Z,1.90
2022-10-10T11:13:35.055Z,1.97
2022-10-10T11:16:09.940Z,2.00
2022-10-10T11:18:46.699Z,2.73
2022-10-10T11:21:17.276Z,2.40
2022-10-10T11:23:47.246Z,2.27
2022-10-10T11:26:19.785Z,1.93
2022-10-10T11:28:52.031Z,1.70
2022-10-10T11:31:22.036Z,2.10
2022-10-10T11:33:54.319Z,1.50
2022-10-10T11:36:25.666Z,2.17
2022-10-10T11:38:56.144Z,2.10
2022-10-10T11:41:25.400Z,2.30
2022-10-10T11:43:55.889Z,1.60
2022-10-10T11:46:28.494Z,1.80
2022-10-10T11:49:00.978Z,1.77
2022-10-10T11:51:36.877Z,1.67
2022-10-10T11:54:07.911Z,1.93
2022-10-10T11:56:38.869Z,1.63
2022-10-10T11:59:10.011Z,1.90
2022-10-10T12:01:39.745Z,2.00
2022-10-10T12:04:07.713Z,1.83
2022-10-10T12:06:36.636Z,2.00
2022-10-10T12:09:07.258Z,1.80
2022-10-10T12:11:37.831Z,1.63
2022-10-10T12:14:08.769Z,1.50
2022-10-10T12:16:38.611Z,1.90
2022-10-10T12:19:07.625Z,1.40
2022-10-10T12:21:53.362Z,1.90
2022-10-10T12:24:21.464Z,1.53
2022-10-10T12:27:16.040Z,2.17
2022-10-10T12:29:48.985Z,1.73
2022-10-10T12:32:27.713Z,1.70
2022-10-10T12:34:59.732Z,2.10
2022-10-10T12:37:28.380Z,1.37
2022-10-10T12:40:04.731Z,1.30
2022-10-10T12:42:33.404Z,1.50
2022-10-10T12:45:01.568Z,1.47
2022-10-10T12:47:59.893Z,1.50
2022-10-10T12:50:23.337Z,1.50
2022-10-10T12:52:53.334Z,2.13
2022-10-10T12:55:22.361Z,1.47
2022-10-10T12:57:51.456Z,1.73
2022-10-10T13:00:20.652Z,1.50
2022-10-10T13:02:51.725Z,1.43
2022-10-10T13:05:20.705Z,1.70
2022-10-10T13:07:49.479Z,1.47
2022-10-10T13:10:22.107Z,1.40
2022-10-10T13:12:59.716Z,1.47
2022-10-10T13:15:27.790Z,1.70
2022-10-10T13:17:57.132Z,1.63
2022-10-10T13:20:28.773Z,1.50
2022-10-10T13:22:57.285Z,1.40
2022-10-10T13:25:25.433Z,1.97
2022-10-10T13:27:53.399Z,1.60
2022-10-10T13:30:21.959Z,1.90
2022-10-10T13:32:50.139Z,1.50
2022-10-10T13:35:21.335Z,1.40
2022-10-10T13:37:52.012Z,1.60
2022-10-10T13:40:20.539Z,1.57
2022-10-10T13:42:49.284Z,1.37
2022-10-10T13:45:35.992Z,1.83
2022-10-10T13:48:27.580Z,1.90
2022-10-10T13:51:01.931Z,1.40
2022-10-10T13:53:34.494Z,1.80
2022-10-10T13:56:05.353Z,1.50
2022-10-10T13:58:34.718Z,2.13
2022-10-10T14:01:04.315Z,1.57
2022-10-10T14:03:34.322Z,1.97
2022-10-10T14:06:03.729Z,1.53
2022-10-10T14:08:33.234Z,1.57
2022-10-10T14:11:02.387Z,1.70
2022-10-10T14:13:31.582Z,1.63
2022-10-10T14:16:11.091Z,1.87
2022-10-10T14:18:39.190Z,1.60
2022-10-10T14:21:09.647Z,1.17
2022-10-10T14:23:37.945Z,1.33
2022-10-10T14:26:06.116Z,1.97
2022-10-10T14:28:34.901Z,1.67
2022-10-10T14:31:03.307Z,1.77
2022-10-10T14:33:31.413Z,2.17
2022-10-10T14:36:00.279Z,2.20
2022-10-10T14:38:29.673Z,2.00
2022-10-10T14:40:57.567Z,1.57
2022-10-10T14:43:25.508Z,1.47
2022-10-10T14:45:54.091Z,1.70
2022-10-10T14:48:22.117Z,1.90
2022-10-10T14:50:51.337Z,1.77
2022-10-10T14:53:19.424Z,1.90
2022-10-10T14:55:51.371Z,1.40
2022-10-10T14:58:23.654Z,1.43
2022-10-10T15:00:52.121Z,1.33
2022-10-10T15:03:20.213Z,1.50
2022-10-10T15:05:48.586Z,1.57
2022-10-10T15:08:17.504Z,1.60
2022-10-10T15:10:46.262Z,1.40
2022-10-10T15:13:15.954Z,2.57
2022-10-10T15:15:43.987Z,1.70
2022-10-10T15:18:33.222Z,1.90
2022-10-10T15:21:00.119Z,1.17
2022-10-10T15:23:28.291Z,1.87
2022-10-10T15:26:00.204Z,1.63
2022-10-10T15:28:29.589Z,1.43
2022-10-10T15:30:57.585Z,1.80
2022-10-10T15:33:25.544Z,1.20
2022-10-10T15:36:08.943Z,1.30
2022-10-10T15:38:38.077Z,1.50
2022-10-10T15:41:06.873Z,1.60
2022-10-10T15:43:43.472Z,1.60
2022-10-10T15:46:11.605Z,1.70
2022-10-10T15:48:39.550Z,1.80
2022-10-10T15:51:08.471Z,3.07
2022-10-10T15:53:37.263Z,1.97
2022-10-10T15:56:09.920Z,1.40
2022-10-10T15:58:40.078Z,1.43
2022-10-10T16:01:12.446Z,1.23
2022-10-10T16:03:40.415Z,2.30
2022-10-10T16:06:08.680Z,2.10
2022-10-10T16:08:37.112Z,1.70
2022-10-10T16:11:08.995Z,2.13
2022-10-10T16:13:37.387Z,1.70
2022-10-10T16:16:07.671Z,2.43
2022-10-10T16:18:40.204Z,2.33
2022-10-10T16:21:09.643Z,2.20
2022-10-10T16:23:37.804Z,2.03
2022-10-10T16:26:06.725Z,3.10
2022-10-10T16:28:34.805Z,3.20
2022-10-10T16:31:03.329Z,2.83
2022-10-10T16:33:34.441Z,2.67
2022-10-10T16:36:02.652Z,2.30
2022-10-10T16:38:30.547Z,2.07
2022-10-10T16:41:02.610Z,3.87
2022-10-10T16:43:30.735Z,2.47
2022-10-10T16:46:02.133Z,1.93
2022-10-10T16:48:30.121Z,1.80
2022-10-10T16:51:02.081Z,1.77
2022-10-10T16:53:30.162Z,2.37
2022-10-10T16:55:59.318Z,2.20
2022-10-10T16:58:27.243Z,2.53
2022-10-10T17:00:55.235Z,2.03
2022-10-10T17:03:24.539Z,1.90
2022-10-10T17:06:01.362Z,2.07
2022-10-10T17:08:31.299Z,1.93
2022-10-10T17:10:59.376Z,2.20
2022-10-10T17:13:27.695Z,2.07
2022-10-10T17:15:57.225Z,1.73
2022-10-10T17:18:26.838Z,1.80
2022-10-10T17:20:54.729Z,1.80
2022-10-10T17:23:22.730Z,1.80
2022-10-10T17:25:52.089Z,2.20
2022-10-10T17:28:20.029Z,2.03
2022-10-10T17:30:49.240Z,2.20
2022-10-10T17:33:17.794Z,1.97
2022-10-10T17:35:47.757Z,2.47
2022-10-10T17:38:38.652Z,2.87
2022-10-10T17:41:06.258Z,2.83
2022-10-10T17:43:34.624Z,2.80
2022-10-10T17:46:21.973Z,2.90
2022-10-10T17:48:51.006Z,2.60
2022-10-10T17:51:22.464Z,2.63
2022-10-10T17:53:50.716Z,2.77
2022-10-10T17:56:20.995Z,3.17
2022-10-10T17:58:50.367Z,2.63
2022-10-10T18:01:22.829Z,3.17
2022-10-10T18:03:51.366Z,3.70
2022-10-10T18:06:20.871Z,3.20
2022-10-10T18:08:48.898Z,3.73
2022-10-10T18:11:18.129Z,3.50
2022-10-10T18:13:47.794Z,4.20
2022-10-10T18:16:17.116Z,4.23
2022-10-10T18:18:50.481Z,3.73
2022-10-10T18:21:19.965Z,3.30
2022-10-10T18:23:48.154Z,3.07
2022-10-10T18:26:18.151Z,4.03
2022-10-10T18:28:47.660Z,4.30
2022-10-10T18:31:17.205Z,4.87
2022-10-10T18:33:45.952Z,4.43
2022-10-10T18:36:14.663Z,4.80
2022-10-10T18:38:42.650Z,5.10
2022-10-10T18:41:12.081Z,4.70
2022-10-10T18:43:40.865Z,5.20
2022-10-10T18:46:11.178Z,4.93
2022-10-10T18:48:39.728Z,5.77
2022-10-10T18:51:08.775Z,6.07
2022-10-10T18:53:37.340Z,4.50
2022-10-10T18:56:05.689Z,4.80
2022-10-10T18:58:34.244Z,4.50
2022-10-10T19:01:03.919Z,4.07
2022-10-10T19:03:33.613Z,4.00
2022-10-10T19:06:02.758Z,5.43
2022-10-10T19:08:31.961Z,5.17
2022-10-10T19:11:00.444Z,4.80
2022-10-10T19:13:29.082Z,6.27
2022-10-10T19:15:57.407Z,8.17
2022-10-10T19:18:25.307Z,8.10
2022-10-10T19:20:59.606Z,6.27
2022-10-10T19:23:27.699Z,6.07
2022-10-10T19:25:55.642Z,6.27
2022-10-10T19:28:23.766Z,5.80
2022-10-10T19:30:51.698Z,5.57
2022-10-10T19:33:19.626Z,6.13
2022-10-10T19:35:51.258Z,5.83
2022-10-10T19:38:21.750Z,6.27
2022-10-10T19:40:49.928Z,6.17
2022-10-10T19:43:18.697Z,6.07
2022-10-10T19:45:47.620Z,5.57
2022-10-10T19:48:16.001Z,6.40
2022-10-10T19:50:44.550Z,6.67
2022-10-10T19:53:13.112Z,7.57
2022-10-10T19:55:42.631Z,7.40
2022-10-10T19:58:10.587Z,7.33
2022-10-10T20:00:38.934Z,10.53
2022-10-10T20:03:06.869Z,10.20
2022-10-10T20:05:34.811Z,10.37
2022-10-10T20:08:02.764Z,8.47
2022-10-10T20:10:30.713Z,8.30
2022-10-10T20:13:00.114Z,7.30
2022-10-10T20:15:28.099Z,6.33
2022-10-10T20:17:56.048Z,6.23
2022-10-10T20:20:24.026Z,6.57
2022-10-10T20:22:51.914Z,7.20
2022-10-10T20:25:19.923Z,6.10
2022-10-10T20:27:48.013Z,6.03
2022-10-10T20:30:17.395Z,5.80
2022-10-10T20:32:45.403Z,5.13
2022-10-10T20:35:14.651Z,6.17
2022-10-10T20:37:42.629Z,5.83
2022-10-10T20:40:11.029Z,6.23
2022-10-10T20:42:38.971Z,5.53
2022-10-10T20:45:11.197Z,6.03
2022-10-10T20:47:40.791Z,6.20
2022-10-10T20:50:09.056Z,6.50
2022-10-10T20:52:37.009Z,6.33
2022-10-10T20:55:05.380Z,5.90
2022-10-10T20:57:33.312Z,5.70
2022-10-10T21:00:01.245Z,6.53
2022-10-10T21:02:29.257Z,6.33
2022-10-10T21:04:58.589Z,6.20
2022-10-10T21:07:26.576Z,5.23
2022-10-10T21:09:54.546Z,6.30
2022-10-10T21:12:22.450Z,6.40
2022-10-10T21:14:50.360Z,7.07
2022-10-10T21:17:18.363Z,6.37
2022-10-10T21:19:46.297Z,6.23
2022-10-10T21:22:15.615Z,5.37
2022-10-10T21:24:43.541Z,5.77
2022-10-10T21:27:11.451Z,5.80
2022-10-10T21:29:39.354Z,5.63
2022-10-10T21:32:07.404Z,5.70
2022-10-10T21:34:35.300Z,5.07
2022-10-10T21:37:03.433Z,5.40
2022-10-10T21:39:33.055Z,5.67
2022-10-10T21:42:00.964Z,5.90
2022-10-10T21:44:28.895Z,4.97
2022-10-10T21:46:56.833Z,5.20
2022-10-10T21:49:24.737Z,6.37
2022-10-10T21:51:52.684Z,6.87
2022-10-10T21:54:20.604Z,6.77
2022-10-10T21:56:49.963Z,8.07
2022-10-10T21:59:17.871Z,7.10
2022-10-10T22:01:45.783Z,5.57
2022-10-10T22:04:13.698Z,5.47
2022-10-10T22:06:41.657Z,6.10
2022-10-10T22:09:09.593Z,5.07
2022-10-10T22:11:37.484Z,4.43
2022-10-10T22:14:07.098Z,5.07
2022-10-10T22:16:35.332Z,4.63
2022-10-10T22:19:03.472Z,5.40
2022-10-10T22:21:34.738Z,4.57
2022-10-10T22:24:04.892Z,4.37
2022-10-10T22:26:33.909Z,4.40
2022-10-10T22:29:01.827Z,4.47
2022-10-10T22:31:31.202Z,5.03
2022-10-10T22:33:59.109Z,4.57
2022-10-10T22:36:27.167Z,4.27
2022-10-10T22:38:55.065Z,4.30
2022-10-10T22:41:22.969Z,4.40
2022-10-10T22:43:51.028Z,3.90
2022-10-10T22:46:19.316Z,4.57
2022-10-10T22:48:48.655Z,6.27
2022-10-10T22:51:17.745Z,4.33
2022-10-10T22:53:46.446Z,3.97
2022-10-10T22:56:15.516Z,4.30
2022-10-10T22:58:43.851Z,5.10
2022-10-10T23:01:14.809Z,4.60
2022-10-10T23:03:43.133Z,4.80
2022-10-10T23:06:12.788Z,4.20
2022-10-10T23:08:40.805Z,4.23
2022-10-10T23:11:09.005Z,4.67
2022-10-10T23:13:37.017Z,4.27
2022-10-10T23:16:05.399Z,4.33
2022-10-10T23:18:33.622Z,5.10
2022-10-10T23:21:01.684Z,4.43
2022-10-10T23:23:31.023Z,4.67
2022-10-10T23:25:59.093Z,4.00
2022-10-10T23:28:27.029Z,4.10
2022-10-10T23:30:55.053Z,5.50
2022-10-10T23:33:22.976Z,5.10
2022-10-10T23:35:57.582Z,4.60
2022-10-10T23:38:25.510Z,5.63
2022-10-10T23:40:54.889Z,5.53
2022-10-10T23:43:22.992Z,5.50
2022-10-10T23:45:51.192Z,4.97
2022-10-10T23:48:19.126Z,5.40
2022-10-10T23:50:47.201Z,5.10
2022-10-10T23:53:15.116Z,4.93
2022-10-10T23:55:43.023Z,5.00
2022-10-10T23:58:12.405Z,5.00
